createdAt,value
2022-08-26T00:00:21.397Z,23.83
2022-08-26T00:02:49.747Z,23.80
2022-08-26T00:05:18.261Z,23.76
2022-08-26T00:07:47.339Z,23.74
2022-08-26T00:10:16.088Z,23.72
2022-08-26T00:12:46.020Z,23.70
2022-08-26T00:15:17.539Z,23.68
2022-08-26T00:17:48.104Z,23.67
2022-08-26T00:20:20.579Z,23.63
2022-08-26T00:22:49.330Z,23.64
2022-08-26T00:25:18.191Z,23.62
2022-08-26T00:27:47.782Z,23.60
2022-08-26T00:30:24.914Z,23.57
2022-08-26T00:32:57.450Z,23.57
2022-08-26T00:35:28.094Z,23.56
2022-08-26T00:37:57.120Z,23.55
2022-08-26T00:40:32.815Z,23.52
2022-08-26T00:43:02.327Z,23.51
2022-08-26T00:45:44.406Z,23.48
2022-08-26T00:48:18.127Z,23.44
2022-08-26T00:50:52.714Z,23.43
2022-08-26T00:53:26.021Z,23.42
2022-08-26T00:56:02.783Z,23.40
2022-08-26T00:58:33.987Z,23.39
2022-08-26T01:01:03.301Z,23.37
2022-08-26T01:03:36.220Z,23.33
2022-08-26T01:06:05.334Z,23.31
2022-08-26T01:08:41.415Z,23.29
2022-08-26T01:11:10.177Z,23.28
2022-08-26T01:13:39.479Z,23.25
2022-08-26T01:16:12.502Z,23.23
2022-08-26T01:18:45.002Z,23.21
2022-08-26T01:21:21.017Z,23.19
2022-08-26T01:23:57.479Z,23.17
2022-08-26T01:26:29.741Z,23.14
2022-08-26T01:29:01.432Z,23.12
2022-08-26T01:31:36.742Z,23.11
2022-08-26T01:34:12.188Z,23.11
2022-08-26T01:36:41.500Z,23.12
2022-08-26T01:39:12.700Z,23.10
2022-08-26T01:41:44.073Z,23.10
2022-08-26T01:44:21.145Z,23.08
2022-08-26T01:46:51.805Z,23.06
2022-08-26T01:49:21.387Z,23.05
2022-08-26T01:51:54.231Z,23.02
2022-08-26T01:54:24.787Z,23.02
2022-08-26T01:56:53.773Z,23.01
2022-08-26T01:59:24.489Z,23.00
2022-08-26T02:01:53.207Z,23.00
2022-08-26T02:04:27.618Z,22.99
2022-08-26T02:06:57.916Z,22.97
2022-08-26T02:09:29.216Z,22.95
2022-08-26T02:12:01.447Z,22.95
2022-08-26T02:17:07.282Z,22.92
2022-08-26T02:19:41.052Z,22.89
2022-08-26T02:22:16.186Z,22.86
2022-08-26T02:24:52.701Z,22.85
2022-08-26T02:27:24.862Z,22.84
2022-08-26T02:29:58.982Z,22.83
2022-08-26T02:32:27.403Z,22.81
2022-08-26T02:34:55.850Z,22.79
2022-08-26T02:37:24.253Z,22.79
2022-08-26T02:39:55.174Z,22.78
2022-08-26T02:42:23.604Z,22.80
2022-08-26T02:44:53.306Z,22.79
2022-08-26T02:47:21.674Z,22.79
2022-08-26T02:49:53.714Z,22.79
2022-08-26T02:52:22.103Z,22.78
2022-08-26T02:54:50.467Z,22.78
2022-08-26T02:57:20.630Z,22.76
2022-08-26T02:59:50.744Z,22.76
2022-08-26T03:02:19.161Z,22.77
2022-08-26T03:04:58.062Z,22.75
2022-08-26T03:07:30.862Z,22.75
2022-08-26T03:09:59.458Z,22.72
2022-08-26T03:12:29.213Z,22.74
2022-08-26T03:14:58.337Z,22.74
2022-08-26T03:17:26.921Z,22.74
2022-08-26T03:19:57.204Z,22.75
2022-08-26T03:22:27.121Z,22.74
2022-08-26T03:24:55.726Z,22.74
2022-08-26T03:27:24.044Z,22.73
2022-08-26T03:30:11.735Z,22.72
2022-08-26T03:32:41.367Z,22.70
2022-08-26T03:35:10.637Z,22.70
2022-08-26T03:37:39.806Z,22.68
2022-08-26T03:40:11.617Z,22.69
2022-08-26T03:42:41.389Z,22.69
2022-08-26T03:45:16.747Z,22.69
2022-08-26T03:47:45.783Z,22.70
2022-08-26T03:50:22.644Z,22.68
2022-08-26T03:52:51.782Z,22.68
2022-08-26T03:55:23.599Z,22.68
2022-08-26T03:57:52.177Z,22.67
2022-08-26T04:00:22.735Z,22.66
2022-08-26T04:02:53.264Z,22.66
2022-08-26T04:05:24.145Z,22.66
2022-08-26T04:07:53.033Z,22.66
2022-08-26T04:10:28.574Z,22.67
2022-08-26T04:13:05.940Z,22.67
2022-08-26T04:15:35.692Z,22.67
2022-08-26T04:18:04.650Z,22.67
2022-08-26T04:20:33.045Z,22.69
2022-08-26T04:23:01.465Z,22.71
2022-08-26T04:25:30.138Z,22.70
2022-08-26T04:27:58.495Z,22.70
2022-08-26T04:30:26.888Z,22.69
2022-08-26T04:32:56.609Z,22.69
2022-08-26T04:35:26.330Z,22.68
2022-08-26T04:37:56.166Z,22.68
2022-08-26T04:40:27.589Z,22.67
2022-08-26T04:42:56.866Z,22.66
2022-08-26T04:45:26.310Z,22.64
2022-08-26T04:47:58.254Z,22.64
2022-08-26T04:50:27.022Z,22.64
2022-08-26T04:52:56.405Z,22.66
2022-08-26T04:55:39.720Z,22.66
2022-08-26T04:58:11.181Z,22.65
2022-08-26T05:00:40.339Z,22.66
2022-08-26T05:03:10.775Z,22.66
2022-08-26T05:05:41.304Z,22.66
2022-08-26T05:08:11.235Z,22.68
2022-08-26T05:10:43.665Z,22.67
2022-08-26T05:13:15.111Z,22.68
2022-08-26T05:15:45.281Z,22.70
2022-08-26T05:18:17.460Z,22.70
2022-08-26T05:20:51.527Z,22.72
2022-08-26T05:23:23.569Z,22.75
2022-08-26T05:25:58.995Z,22.76
2022-08-26T05:28:29.633Z,22.78
2022-08-26T05:30:58.362Z,22.80
2022-08-26T05:33:28.905Z,22.80
2022-08-26T05:35:57.214Z,22.82
2022-08-26T05:38:25.579Z,22.85
2022-08-26T05:40:58.717Z,22.88
2022-08-26T05:43:27.889Z,22.89
2022-08-26T05:45:56.403Z,22.93
2022-08-26T05:48:25.130Z,22.95
2022-08-26T05:50:55.145Z,22.97
2022-08-26T05:53:26.088Z,23.01
2022-08-26T05:55:56.201Z,23.02
2022-08-26T05:58:25.316Z,23.07
2022-08-26T06:01:03.545Z,23.08
2022-08-26T06:03:34.758Z,23.12
2022-08-26T06:06:07.524Z,23.15
2022-08-26T06:08:37.767Z,23.17
2022-08-26T06:11:10.751Z,23.19
2022-08-26T06:13:47.909Z,23.20
2022-08-26T06:16:19.463Z,23.25
2022-08-26T06:18:49.200Z,23.27
2022-08-26T06:21:21.405Z,23.31
2022-08-26T06:24:10.885Z,23.32
2022-08-26T06:26:42.961Z,23.35
2022-08-26T06:29:15.467Z,23.37
2022-08-26T06:31:54.032Z,23.42
2022-08-26T06:34:29.636Z,23.44
2022-08-26T06:37:03.550Z,23.47
2022-08-26T06:39:32.704Z,23.52
2022-08-26T06:42:03.056Z,23.55
2022-08-26T06:44:32.377Z,23.57
2022-08-26T06:47:00.873Z,23.60
2022-08-26T06:49:29.439Z,23.63
2022-08-26T06:51:59.751Z,23.66
2022-08-26T06:54:30.248Z,23.68
2022-08-26T06:56:59.024Z,23.70
2022-08-26T06:59:27.759Z,23.72
2022-08-26T07:01:56.541Z,23.76
2022-08-26T07:04:25.060Z,23.79
2022-08-26T07:06:57.025Z,23.83
2022-08-26T07:09:33.134Z,23.85
2022-08-26T07:12:01.833Z,23.89
2022-08-26T07:14:31.746Z,23.93
2022-08-26T07:17:01.374Z,23.97
2022-08-26T07:19:31.392Z,24.02
2022-08-26T07:22:01.974Z,24.07
2022-08-26T07:24:32.534Z,24.11
2022-08-26T07:27:02.735Z,24.15
2022-08-26T07:29:32.367Z,24.23
2022-08-26T07:32:00.808Z,24.27
2022-08-26T07:34:29.358Z,24.34
2022-08-26T07:36:58.727Z,24.40
2022-08-26T07:39:27.943Z,24.45
2022-08-26T07:42:01.372Z,24.49
2022-08-26T07:44:32.292Z,24.56
2022-08-26T07:47:00.865Z,24.62
2022-08-26T07:49:29.682Z,24.66
2022-08-26T07:51:58.177Z,24.74
2022-08-26T07:54:27.318Z,24.79
2022-08-26T07:56:57.620Z,24.86
2022-08-26T07:59:26.415Z,24.89
2022-08-26T08:01:54.794Z,24.95
2022-08-26T08:04:26.544Z,25.01
2022-08-26T08:06:55.499Z,25.08
2022-08-26T08:09:24.599Z,25.14
2022-08-26T08:11:54.051Z,25.19
2022-08-26T08:14:23.788Z,25.25
2022-08-26T08:16:55.057Z,25.32
2022-08-26T08:19:24.400Z,25.36
2022-08-26T08:22:17.085Z,25.41
2022-08-26T08:24:49.886Z,25.48
2022-08-26T08:27:23.881Z,25.52
2022-08-26T08:29:55.230Z,25.57
2022-08-26T08:32:24.439Z,25.64
2022-08-26T08:34:52.947Z,25.68
2022-08-26T08:37:21.359Z,25.76
2022-08-26T08:39:50.176Z,25.80
2022-08-26T08:42:39.736Z,25.84
2022-08-26T08:45:15.410Z,25.90
2022-08-26T08:47:54.778Z,25.96
2022-08-26T08:50:28.925Z,26.03
2022-08-26T08:53:15.128Z,26.12
2022-08-26T08:56:00.101Z,26.19
2022-08-26T08:58:50.471Z,26.28
2022-08-26T09:01:31.586Z,26.35
2022-08-26T09:04:23.212Z,26.43
2022-08-26T09:09:31.924Z,26.62
2022-08-26T09:12:02.225Z,26.73
2022-08-26T09:14:32.710Z,26.82
2022-08-26T09:17:09.875Z,26.90
2022-08-26T09:19:44.597Z,26.95
2022-08-26T09:22:29.442Z,27.04
2022-08-26T09:24:57.820Z,27.11
2022-08-26T09:27:46.327Z,27.17
2022-08-26T09:30:34.426Z,27.23
2022-08-26T09:33:10.874Z,27.29
2022-08-26T09:35:43.861Z,27.35
2022-08-26T09:38:26.677Z,27.39
2022-08-26T09:40:59.765Z,27.45
2022-08-26T09:43:29.116Z,27.48
2022-08-26T09:46:15.167Z,27.50
2022-08-26T09:48:45.041Z,27.54
2022-08-26T09:51:30.723Z,27.54
2022-08-26T09:54:02.224Z,27.59
2022-08-26T09:56:34.291Z,27.64
2022-08-26T09:59:03.981Z,27.69
2022-08-26T10:01:40.195Z,27.73
2022-08-26T10:04:14.026Z,27.77
2022-08-26T10:06:46.240Z,27.83
2022-08-26T10:09:19.510Z,27.88
2022-08-26T10:11:53.536Z,27.94
2022-08-26T10:14:27.553Z,28.00
2022-08-26T10:17:03.552Z,28.08
2022-08-26T10:19:57.078Z,28.12
2022-08-26T10:22:33.472Z,28.16
2022-08-26T10:25:04.961Z,28.20
2022-08-26T10:27:51.206Z,28.24
2022-08-26T10:30:25.092Z,28.28
2022-08-26T10:32:58.829Z,28.32
2022-08-26T10:35:29.488Z,28.36
2022-08-26T10:38:03.954Z,28.42
2022-08-26T10:40:46.178Z,28.47
2022-08-26T10:43:23.534Z,28.51
2022-08-26T10:45:59.937Z,28.56
2022-08-26T10:48:37.368Z,28.66
2022-08-26T10:51:08.687Z,28.81
2022-08-26T10:53:51.412Z,29.00
2022-08-26T10:56:38.125Z,29.20
2022-08-26T10:59:16.036Z,29.34
2022-08-26T11:01:52.624Z,29.46
2022-08-26T11:04:40.868Z,29.56
2022-08-26T11:07:41.908Z,29.68
2022-08-26T11:10:28.145Z,29.76
2022-08-26T11:13:00.190Z,29.82
2022-08-26T11:16:10.804Z,29.85
2022-08-26T11:18:46.994Z,29.86
2022-08-26T11:22:06.065Z,29.85
2022-08-26T11:25:07.610Z,29.85
2022-08-26T11:28:05.229Z,29.84
2022-08-26T11:30:57.011Z,29.83
2022-08-26T11:34:00.819Z,29.80
2022-08-26T11:37:05.061Z,29.78
2022-08-26T11:39:54.077Z,29.77
2022-08-26T11:42:34.341Z,29.76
2022-08-26T11:45:20.815Z,29.75
2022-08-26T11:47:49.370Z,29.77
2022-08-26T11:50:21.486Z,29.72
2022-08-26T11:52:55.405Z,29.70
2022-08-26T11:55:25.278Z,29.68
2022-08-26T11:57:57.690Z,29.64
2022-08-26T12:00:31.446Z,29.64
2022-08-26T12:03:07.779Z,29.63
2022-08-26T12:05:44.307Z,29.61
2022-08-26T12:08:16.573Z,29.62
2022-08-26T12:10:46.553Z,29.62
2022-08-26T12:13:24.044Z,29.62
2022-08-26T12:15:57.062Z,29.65
2022-08-26T12:18:28.879Z,29.64
2022-08-26T12:21:00.980Z,29.67
2022-08-26T12:23:46.723Z,29.69
2022-08-26T12:26:24.588Z,29.73
2022-08-26T12:28:58.002Z,29.83
2022-08-26T12:31:35.454Z,29.96
2022-08-26T12:34:07.221Z,30.10
2022-08-26T12:36:50.904Z,30.23
2022-08-26T12:39:28.488Z,30.37
2022-08-26T12:42:00.084Z,30.51
2022-08-26T12:44:54.054Z,30.62
2022-08-26T12:47:42.052Z,30.73
2022-08-26T12:50:20.562Z,30.81
2022-08-26T12:53:01.089Z,30.89
2022-08-26T12:55:41.401Z,30.97
2022-08-26T12:58:24.504Z,31.01
2022-08-26T13:00:55.233Z,31.09
2022-08-26T13:03:44.509Z,31.10
2022-08-26T13:06:18.105Z,31.09
2022-08-26T13:08:48.430Z,31.06
2022-08-26T13:11:21.344Z,31.03
2022-08-26T13:13:53.415Z,31.01
2022-08-26T13:16:23.818Z,30.98
2022-08-26T13:18:55.669Z,30.96
2022-08-26T13:21:26.999Z,30.95
2022-08-26T13:23:55.961Z,30.93
2022-08-26T13:26:24.308Z,30.93
2022-08-26T13:29:01.640Z,30.92
2022-08-26T13:31:32.525Z,30.94
2022-08-26T13:34:02.552Z,30.93
2022-08-26T13:36:31.418Z,30.96
2022-08-26T13:39:00.482Z,31.00
2022-08-26T13:41:29.871Z,31.06
2022-08-26T13:44:00.094Z,31.06
2022-08-26T13:46:29.017Z,31.02
2022-08-26T13:48:58.563Z,31.00
2022-08-26T13:51:28.448Z,30.95
2022-08-26T13:53:57.385Z,30.87
2022-08-26T13:56:29.373Z,30.79
2022-08-26T13:59:01.179Z,30.67
2022-08-26T14:01:31.719Z,30.60
2022-08-26T14:04:00.075Z,30.55
2022-08-26T14:06:28.739Z,30.51
2022-08-26T14:08:57.062Z,30.54
2022-08-26T14:11:25.773Z,30.54
2022-08-26T14:13:54.222Z,30.54
2022-08-26T14:16:31.512Z,30.49
2022-08-26T14:19:01.321Z,30.50
2022-08-26T14:21:32.613Z,30.49
2022-08-26T14:24:01.188Z,30.51
2022-08-26T14:26:30.184Z,30.53
2022-08-26T14:28:59.735Z,30.57
2022-08-26T14:31:31.738Z,30.60
2022-08-26T14:34:04.794Z,30.67
2022-08-26T14:36:33.890Z,30.74
2022-08-26T14:39:06.421Z,30.81
2022-08-26T14:41:37.120Z,30.88
2022-08-26T14:44:09.968Z,30.93
2022-08-26T14:46:46.532Z,30.89
2022-08-26T14:49:16.055Z,30.94
2022-08-26T14:51:44.456Z,30.94
2022-08-26T14:54:13.295Z,30.89
2022-08-26T14:56:48.531Z,30.85
2022-08-26T14:59:20.748Z,30.79
2022-08-26T15:01:50.998Z,30.77
2022-08-26T15:04:19.918Z,30.73
2022-08-26T15:06:48.629Z,30.69
2022-08-26T15:09:17.252Z,30.64
2022-08-26T15:11:46.428Z,30.60
2022-08-26T15:14:19.830Z,30.56
2022-08-26T15:16:51.262Z,30.50
2022-08-26T15:19:20.357Z,30.45
2022-08-26T15:21:48.877Z,30.40
2022-08-26T15:24:21.554Z,30.36
2022-08-26T15:26:50.261Z,30.35
2022-08-26T15:29:18.813Z,30.34
2022-08-26T15:31:49.591Z,30.32
2022-08-26T15:34:18.811Z,30.34
2022-08-26T15:36:49.304Z,30.34
2022-08-26T15:39:18.837Z,30.33
2022-08-26T15:41:47.970Z,30.31
2022-08-26T15:44:18.419Z,30.33
2022-08-26T15:46:50.073Z,30.36
2022-08-26T15:49:19.019Z,30.38
2022-08-26T15:51:50.317Z,30.37
2022-08-26T15:54:21.770Z,30.39
2022-08-26T15:56:53.027Z,30.42
2022-08-26T15:59:23.662Z,30.41
2022-08-26T16:01:53.777Z,30.40
2022-08-26T16:04:22.428Z,30.40
2022-08-26T16:06:52.225Z,30.39
2022-08-26T16:09:24.256Z,30.35
2022-08-26T16:11:53.220Z,30.30
2022-08-26T16:14:21.886Z,30.24
2022-08-26T16:16:50.516Z,30.21
2022-08-26T16:19:21.044Z,30.14
2022-08-26T16:21:50.777Z,30.09
2022-08-26T16:24:24.845Z,30.02
2022-08-26T16:26:55.998Z,29.96
2022-08-26T16:29:24.588Z,29.89
2022-08-26T16:31:54.540Z,29.83
2022-08-26T16:34:24.559Z,29.78
2022-08-26T16:36:53.223Z,29.72
2022-08-26T16:39:21.614Z,29.68
2022-08-26T16:41:50.503Z,29.61
2022-08-26T16:44:19.398Z,29.56
2022-08-26T16:46:48.040Z,29.48
2022-08-26T16:49:16.520Z,29.43
2022-08-26T16:51:46.819Z,29.36
2022-08-26T16:54:15.243Z,29.32
2022-08-26T16:56:43.663Z,29.27
2022-08-26T16:59:12.747Z,29.20
2022-08-26T17:01:41.311Z,29.15
2022-08-26T17:04:09.749Z,29.09
2022-08-26T17:06:38.300Z,29.04
2022-08-26T17:09:08.212Z,28.98
2022-08-26T17:11:36.951Z,28.94
2022-08-26T17:14:05.803Z,28.88
2022-08-26T17:16:34.245Z,28.83
2022-08-26T17:19:04.533Z,28.79
2022-08-26T17:21:34.361Z,28.72
2022-08-26T17:24:03.216Z,28.67
2022-08-26T17:26:33.350Z,28.61
2022-08-26T17:29:01.828Z,28.55
2022-08-26T17:31:30.213Z,28.49
2022-08-26T17:33:58.886Z,28.42
2022-08-26T17:36:28.498Z,28.36
2022-08-26T17:38:58.589Z,28.29
2022-08-26T17:41:28.004Z,28.22
2022-08-26T17:43:57.820Z,28.15
2022-08-26T17:46:26.657Z,28.07
2022-08-26T17:48:55.411Z,28.01
2022-08-26T17:51:24.017Z,27.93
2022-08-26T17:53:53.118Z,27.86
2022-08-26T17:56:25.510Z,27.78
2022-08-26T17:58:56.477Z,27.72
2022-08-26T18:01:28.724Z,27.65
2022-08-26T18:04:00.474Z,27.60
2022-08-26T18:06:31.389Z,27.54
2022-08-26T18:09:00.703Z,27.49
2022-08-26T18:11:31.970Z,27.43
2022-08-26T18:14:00.726Z,27.37
2022-08-26T18:16:31.688Z,27.30
2022-08-26T18:19:00.938Z,27.23
2022-08-26T18:21:29.608Z,27.19
2022-08-26T18:23:58.510Z,27.12
2022-08-26T18:26:31.190Z,27.06
2022-08-26T18:28:59.911Z,27.01
2022-08-26T18:31:30.731Z,26.95
2022-08-26T18:34:01.325Z,26.91
2022-08-26T18:36:33.467Z,26.85
2022-08-26T18:39:03.899Z,26.81
2022-08-26T18:41:35.635Z,26.76
2022-08-26T18:44:04.704Z,26.72
2022-08-26T18:46:34.612Z,26.67
2022-08-26T18:49:03.036Z,26.63
2022-08-26T18:51:34.121Z,26.58
2022-08-26T18:54:06.338Z,26.54
2022-08-26T18:56:36.571Z,26.49
2022-08-26T18:59:07.252Z,26.44
2022-08-26T19:01:40.497Z,26.38
2022-08-26T19:04:14.774Z,26.34
2022-08-26T19:06:48.331Z,26.29
2022-08-26T19:09:17.929Z,26.27
2022-08-26T19:11:47.199Z,26.24
2022-08-26T19:14:18.387Z,26.21
2022-08-26T19:16:50.644Z,26.18
2022-08-26T19:19:19.924Z,26.15
2022-08-26T19:21:48.777Z,26.11
2022-08-26T19:24:19.131Z,26.07
2022-08-26T19:26:55.196Z,26.04
2022-08-26T19:29:30.264Z,25.99
2022-08-26T19:32:00.376Z,25.96
2022-08-26T19:34:29.569Z,25.93
2022-08-26T19:36:58.547Z,25.91
2022-08-26T19:39:27.780Z,25.88
2022-08-26T19:41:56.250Z,25.84
2022-08-26T19:44:42.244Z,25.80
2022-08-26T19:47:13.356Z,25.75
2022-08-26T19:49:41.739Z,25.73
2022-08-26T19:52:11.133Z,25.69
2022-08-26T19:54:40.431Z,25.66
2022-08-26T19:57:08.834Z,25.60
2022-08-26T19:59:37.410Z,25.57
2022-08-26T20:02:10.538Z,25.54
2022-08-26T20:04:41.829Z,25.49
2022-08-26T20:07:14.066Z,25.45
2022-08-26T20:09:45.018Z,25.41
2022-08-26T20:12:13.709Z,25.34
2022-08-26T20:14:42.866Z,25.28
2022-08-26T20:17:11.275Z,25.27
2022-08-26T20:19:58.511Z,25.22
2022-08-26T20:22:26.888Z,25.19
2022-08-26T20:24:55.421Z,25.17
2022-08-26T20:27:27.695Z,25.13
2022-08-26T20:30:09.620Z,25.09
2022-08-26T20:32:38.696Z,25.08
2022-08-26T20:35:14.328Z,25.05
2022-08-26T20:37:43.292Z,25.01
2022-08-26T20:40:14.022Z,24.99
2022-08-26T20:42:42.565Z,24.96
2022-08-26T20:45:11.887Z,24.93
2022-08-26T20:47:40.321Z,24.90
2022-08-26T20:50:10.929Z,24.86
2022-08-26T20:52:39.341Z,24.81
2022-08-26T20:55:08.809Z,24.77
2022-08-26T20:57:37.339Z,24.74
2022-08-26T21:00:07.546Z,24.69
2022-08-26T21:02:35.909Z,24.65
2022-08-26T21:05:04.602Z,24.61
2022-08-26T21:07:34.323Z,24.58
2022-08-26T21:10:03.876Z,24.56
2022-08-26T21:12:32.238Z,24.52
2022-08-26T21:15:00.661Z,24.48
2022-08-26T21:17:29.298Z,24.45
2022-08-26T21:19:57.585Z,24.43
2022-08-26T21:22:26.508Z,24.40
2022-08-26T21:24:56.239Z,24.36
2022-08-26T21:27:26.387Z,24.35
2022-08-26T21:29:55.383Z,24.31
2022-08-26T21:32:23.864Z,24.27
2022-08-26T21:34:55.981Z,24.23
2022-08-26T21:37:25.566Z,24.20
2022-08-26T21:39:57.115Z,24.16
2022-08-26T21:42:27.227Z,24.13
2022-08-26T21:44:55.740Z,24.10
2022-08-26T21:47:25.463Z,24.05
2022-08-26T21:49:54.310Z,24.01
2022-08-26T21:52:22.721Z,23.98
2022-08-26T21:54:51.143Z,23.96
2022-08-26T21:57:22.281Z,23.93
2022-08-26T21:59:50.567Z,23.92
2022-08-26T22:02:19.065Z,23.89
2022-08-26T22:04:49.016Z,23.87
2022-08-26T22:07:19.124Z,23.83
2022-08-26T22:09:47.931Z,23.80
2022-08-26T22:12:18.181Z,23.77
2022-08-26T22:14:48.114Z,23.74
2022-08-26T22:17:16.947Z,23.72
2022-08-26T22:19:46.432Z,23.70
2022-08-26T22:22:16.230Z,23.67
2022-08-26T22:24:44.668Z,23.66
2022-08-26T22:27:14.325Z,23.63
2022-08-26T22:29:42.675Z,23.62
2022-08-26T22:32:12.387Z,23.59
2022-08-26T22:34:41.915Z,23.57
2022-08-26T22:37:10.224Z,23.54
2022-08-26T22:39:38.855Z,23.53
2022-08-26T22:42:07.496Z,23.50
2022-08-26T22:44:37.484Z,23.49
2022-08-26T22:47:06.244Z,23.48
2022-08-26T22:49:35.979Z,23.46
2022-08-26T22:52:04.867Z,23.43
2022-08-26T22:54:33.602Z,23.42
2022-08-26T22:57:02.415Z,23.39
2022-08-26T22:59:30.728Z,23.37
2022-08-26T23:01:59.136Z,23.34
2022-08-26T23:04:27.512Z,23.33
2022-08-26T23:06:57.230Z,23.33
2022-08-26T23:09:25.632Z,23.29
2022-08-26T23:11:55.927Z,23.28
2022-08-26T23:14:25.826Z,23.27
2022-08-26T23:16:54.701Z,23.25
2022-08-26T23:19:24.373Z,23.21
2022-08-26T23:21:52.895Z,23.21
2022-08-26T23:24:22.593Z,23.19
2022-08-26T23:26:51.036Z,23.18
2022-08-26T23:29:19.412Z,23.15
2022-08-26T23:31:47.740Z,23.13
2022-08-26T23:34:33.452Z,23.10
2022-08-26T23:37:02.010Z,23.07
2022-08-26T23:39:34.967Z,23.06
2022-08-26T23:42:03.466Z,23.04
2022-08-26T23:44:32.214Z,23.04
2022-08-26T23:47:01.028Z,23.01
2022-08-26T23:49:30.390Z,23.00
2022-08-26T23:52:16.820Z,23.00
2022-08-26T23:54:48.564Z,22.96
2022-08-26T23:57:19.227Z,22.94
2022-08-26T23:59:49.040Z,22.92
